createdAt,value
2019-02-16T00:00:55.454Z,75.85
2019-02-16T00:03:27.215Z,76.23
2019-02-16T00:05:58.866Z,75.74
2019-02-16T00:08:30.540Z,75.58
2019-02-16T00:11:02.490Z,75.34
2019-02-16T00:13:34.257Z,74.91
2019-02-16T00:16:05.920Z,75.24
2019-02-16T00:18:37.529Z,75.96
2019-02-16T00:21:09.128Z,76.36
2019-02-16T00:23:40.804Z,76.54
2019-02-16T00:26:12.393Z,76.68
2019-02-16T00:28:44.003Z,76.77
2019-02-16T00:31:15.607Z,76.40
2019-02-16T00:33:47.221Z,76.46
2019-02-16T00:36:19.493Z,76.61
2019-02-16T00:38:51.521Z,76.17
2019-02-16T00:41:23.185Z,75.76
2019-02-16T00:43:54.831Z,76.04
2019-02-16T00:46:26.418Z,75.87
2019-02-16T00:48:58.092Z,75.57
2019-02-16T00:51:29.752Z,75.14
2019-02-16T00:54:01.679Z,75.04
2019-02-16T00:56:33.697Z,75.47
2019-02-16T00:59:05.660Z,75.74
2019-02-16T01:01:37.269Z,75.70
2019-02-16T01:04:08.891Z,75.76
2019-02-16T01:06:40.557Z,76.17
2019-02-16T01:09:12.179Z,76.29
2019-02-16T01:11:43.852Z,75.83
2019-02-16T01:14:15.466Z,76.39
2019-02-16T01:16:47.070Z,76.36
2019-02-16T01:19:18.771Z,76.68
2019-02-16T01:21:50.461Z,76.66
2019-02-16T01:24:22.067Z,76.67
2019-02-16T01:26:53.657Z,76.03
2019-02-16T01:29:25.279Z,75.46
2019-02-16T01:31:56.945Z,75.62
2019-02-16T01:34:28.530Z,75.84
2019-02-16T01:37:00.268Z,75.90
2019-02-16T01:39:31.884Z,75.54
2019-02-16T01:42:03.713Z,75.48
2019-02-16T01:44:35.696Z,75.37
2019-02-16T01:47:07.294Z,75.64
2019-02-16T01:49:38.978Z,75.89
2019-02-16T01:52:10.754Z,75.91
2019-02-16T01:54:42.437Z,76.31
2019-02-16T01:57:14.109Z,75.92
2019-02-16T01:59:45.877Z,76.23
2019-02-16T02:02:17.547Z,76.27
2019-02-16T02:04:49.158Z,76.22
2019-02-16T02:07:20.815Z,75.88
2019-02-16T02:09:52.494Z,76.11
2019-02-16T02:12:25.177Z,76.31
2019-02-16T02:14:56.853Z,76.36
2019-02-16T02:17:28.509Z,76.88
2019-02-16T02:20:00.358Z,77.15
2019-02-16T02:22:32.072Z,77.31
2019-02-16T02:25:03.774Z,77.13
2019-02-16T02:27:35.692Z,76.73
2019-02-16T02:30:08.194Z,76.88
2019-02-16T02:32:39.873Z,77.21
2019-02-16T02:35:11.507Z,77.19
2019-02-16T02:37:43.242Z,77.21
2019-02-16T02:40:14.838Z,77.00
2019-02-16T02:42:46.445Z,76.52
2019-02-16T02:45:18.065Z,76.74
2019-02-16T02:47:49.677Z,76.84
2019-02-16T02:50:21.351Z,76.58
2019-02-16T02:52:52.971Z,76.33
2019-02-16T02:55:24.645Z,76.33
2019-02-16T02:57:56.252Z,76.21
2019-02-16T03:00:28.779Z,76.10
2019-02-16T03:03:00.452Z,76.13
2019-02-16T03:05:32.339Z,75.77
2019-02-16T03:08:04.007Z,75.73
2019-02-16T03:10:35.803Z,75.91
2019-02-16T03:13:07.483Z,76.22
2019-02-16T03:15:39.188Z,76.25
2019-02-16T03:18:10.866Z,76.50
2019-02-16T03:20:42.527Z,76.50
2019-02-16T03:23:23.378Z,76.63
2019-02-16T03:26:10.414Z,76.06
2019-02-16T03:29:04.011Z,76.19
2019-02-16T03:32:12.572Z,75.82
2019-02-16T03:35:27.966Z,76.32
2019-02-16T03:38:41.723Z,76.59
2019-02-16T03:41:15.713Z,76.78
2019-02-16T03:43:47.394Z,76.29
2019-02-16T03:46:19.001Z,76.10
2019-02-16T03:48:50.611Z,76.06
2019-02-16T03:51:22.226Z,75.83
2019-02-16T03:53:53.810Z,75.73
2019-02-16T03:56:25.489Z,75.68
2019-02-16T03:58:57.093Z,75.72
2019-02-16T04:01:28.653Z,76.30
2019-02-16T04:04:00.257Z,76.29
2019-02-16T04:06:31.909Z,75.72
2019-02-16T04:09:05.469Z,75.80
2019-02-16T04:11:37.197Z,75.96
2019-02-16T04:14:08.777Z,75.47
2019-02-16T04:16:40.372Z,74.96
2019-02-16T04:19:11.977Z,74.95
2019-02-16T04:21:43.582Z,74.53
2019-02-16T04:24:15.286Z,74.49
2019-02-16T04:26:46.894Z,74.13
2019-02-16T04:29:18.508Z,73.32
2019-02-16T04:31:50.185Z,72.64
2019-02-16T04:34:21.791Z,72.50
2019-02-16T04:36:53.390Z,72.16
2019-02-16T04:39:25.084Z,72.94
2019-02-16T04:41:56.660Z,73.33
2019-02-16T04:44:28.271Z,73.38
2019-02-16T04:46:59.873Z,73.02
2019-02-16T04:49:31.881Z,72.48
2019-02-16T04:52:03.750Z,72.42
2019-02-16T04:54:35.675Z,72.37
2019-02-16T04:57:07.279Z,71.55
2019-02-16T04:59:38.871Z,70.95
2019-02-16T05:02:10.599Z,71.32
2019-02-16T05:04:42.290Z,71.30
2019-02-16T05:07:13.899Z,71.59
2019-02-16T05:09:45.494Z,71.15
2019-02-16T05:12:17.273Z,70.64
2019-02-16T05:14:48.894Z,70.27
2019-02-16T05:17:20.558Z,70.36
2019-02-16T05:19:53.109Z,69.86
2019-02-16T05:22:24.719Z,69.84
2019-02-16T05:24:56.401Z,70.09
2019-02-16T05:27:27.992Z,69.79
2019-02-16T05:29:59.617Z,70.15
2019-02-16T05:32:31.432Z,70.42
2019-02-16T05:35:03.044Z,70.49
2019-02-16T05:37:34.822Z,70.63
2019-02-16T05:40:07.540Z,70.56
2019-02-16T05:42:39.156Z,70.83
2019-02-16T05:45:10.996Z,70.41
2019-02-16T05:47:42.683Z,70.56
2019-02-16T05:50:14.295Z,70.45
2019-02-16T05:52:54.232Z,70.17
2019-02-16T05:55:19.279Z,69.87
2019-02-16T05:57:51.011Z,69.75
2019-02-16T06:00:25.795Z,69.77
2019-02-16T06:02:57.336Z,70.21
2019-02-16T06:05:29.062Z,70.31
2019-02-16T06:08:00.666Z,70.14
2019-02-16T06:10:32.609Z,70.07
2019-02-16T06:13:04.231Z,70.12
2019-02-16T06:15:35.943Z,70.47
2019-02-16T06:18:07.557Z,70.37
2019-02-16T06:20:39.175Z,70.08
2019-02-16T06:23:10.894Z,70.03
2019-02-16T06:25:42.589Z,70.39
2019-02-16T06:28:14.218Z,70.93
2019-02-16T06:30:45.872Z,70.28
2019-02-16T06:33:17.569Z,70.82
2019-02-16T06:35:51.964Z,70.96
2019-02-16T06:38:23.575Z,70.69
2019-02-16T06:40:55.225Z,70.73
2019-02-16T06:43:26.840Z,70.52
2019-02-16T06:45:58.463Z,70.34
2019-02-16T06:48:30.120Z,70.62
2019-02-16T06:51:01.972Z,70.51
2019-02-16T06:53:33.805Z,70.63
2019-02-16T06:56:24.603Z,70.79
2019-02-16T06:58:56.273Z,71.06
2019-02-16T07:01:27.871Z,71.31
2019-02-16T07:04:00.620Z,71.50
2019-02-16T07:06:32.586Z,71.72
2019-02-16T07:09:05.705Z,72.08
2019-02-16T07:11:37.391Z,72.26
2019-02-16T07:14:09.028Z,72.46
2019-02-16T07:16:49.496Z,72.44
2019-02-16T07:19:40.075Z,72.70
2019-02-16T07:22:11.704Z,72.64
2019-02-16T07:24:43.361Z,72.66
2019-02-16T07:27:14.976Z,72.77
2019-02-16T07:29:46.659Z,73.29
2019-02-16T07:32:18.365Z,73.40
2019-02-16T07:34:49.955Z,73.70
2019-02-16T07:37:21.570Z,74.23
2019-02-16T07:39:53.173Z,74.06
2019-02-16T07:42:25.138Z,73.97
2019-02-16T07:45:15.649Z,73.92
2019-02-16T07:47:52.589Z,73.94
2019-02-16T07:50:46.092Z,74.02
2019-02-16T07:53:48.529Z,74.05
2019-02-16T07:56:30.167Z,74.00
2019-02-16T07:59:20.602Z,73.53
2019-02-16T08:02:23.115Z,74.08
2019-02-16T08:05:15.589Z,74.32
2019-02-16T08:07:59.814Z,73.56
2019-02-16T08:10:53.181Z,73.24
2019-02-16T08:13:45.276Z,73.58
2019-02-16T08:16:41.882Z,73.16
2019-02-16T08:19:27.845Z,72.94
2019-02-16T08:22:07.664Z,72.52
2019-02-16T08:25:04.634Z,72.37
2019-02-16T08:27:56.363Z,72.48
2019-02-16T08:30:42.262Z,72.55
2019-02-16T08:33:34.245Z,72.66
2019-02-16T08:36:23.388Z,72.41
2019-02-16T08:39:12.438Z,72.80
2019-02-16T08:42:01.594Z,71.00
2019-02-16T08:44:50.730Z,70.31
2019-02-16T08:47:37.182Z,70.19
2019-02-16T08:50:30.534Z,69.91
2019-02-16T08:53:16.866Z,70.08
2019-02-16T08:56:22.521Z,70.26
2019-02-16T08:59:11.726Z,68.93
2019-02-16T09:02:00.566Z,68.01
2019-02-16T09:04:49.854Z,68.88
2019-02-16T09:07:40.384Z,66.91
2019-02-16T09:10:29.380Z,67.42
2019-02-16T09:13:13.331Z,65.44
2019-02-16T09:16:07.590Z,64.05
2019-02-16T09:18:48.847Z,63.55
2019-02-16T09:21:51.299Z,63.26
2019-02-16T09:24:57.076Z,63.82
2019-02-16T09:27:38.707Z,63.25
2019-02-16T09:30:24.579Z,61.74
2019-02-16T09:33:12.478Z,62.41
2019-02-16T09:36:04.473Z,61.54
2019-02-16T09:38:53.470Z,60.90
2019-02-16T09:41:42.746Z,60.09
2019-02-16T09:44:23.347Z,58.82
2019-02-16T09:47:32.135Z,59.91
2019-02-16T09:50:12.723Z,57.60
2019-02-16T09:53:03.306Z,56.94
2019-02-16T09:55:52.480Z,56.34
2019-02-16T09:58:41.504Z,55.79
2019-02-16T10:01:50.390Z,55.34
2019-02-16T10:04:37.381Z,53.38
2019-02-16T10:07:26.575Z,53.15
2019-02-16T10:10:22.930Z,51.66
2019-02-16T10:13:08.987Z,52.33
2019-02-16T10:16:02.656Z,50.32
2019-02-16T10:18:53.229Z,51.99
2019-02-16T10:21:46.571Z,49.51
2019-02-16T10:24:27.737Z,48.64
2019-02-16T10:27:33.162Z,47.90
2019-02-16T10:30:22.183Z,46.12
2019-02-16T10:33:12.789Z,44.84
2019-02-16T10:35:52.762Z,45.71
2019-02-16T10:38:43.370Z,45.28
2019-02-16T10:41:32.627Z,43.13
2019-02-16T10:44:38.016Z,43.89
2019-02-16T10:47:31.303Z,43.16
2019-02-16T10:50:14.400Z,43.01
2019-02-16T10:53:04.919Z,41.84
2019-02-16T10:55:50.046Z,42.36
2019-02-16T10:58:46.560Z,41.52
2019-02-16T11:01:35.700Z,41.76
2019-02-16T11:04:38.138Z,41.52
2019-02-16T11:07:10.431Z,41.57
2019-02-16T11:09:47.344Z,42.88
2019-02-16T11:12:40.759Z,43.19
2019-02-16T11:15:47.916Z,42.52
2019-02-16T11:18:30.640Z,41.98
2019-02-16T11:21:21.171Z,42.29
2019-02-16T11:24:11.774Z,42.71
2019-02-16T11:27:05.489Z,41.95
2019-02-16T11:29:46.633Z,43.25
2019-02-16T11:32:42.634Z,42.72
2019-02-16T11:35:40.421Z,43.28
2019-02-16T11:38:36.808Z,41.93
2019-02-16T11:41:19.450Z,40.98
2019-02-16T11:44:04.895Z,41.79
2019-02-16T11:46:58.692Z,40.60
2019-02-16T11:49:52.274Z,40.86
2019-02-16T11:52:51.741Z,40.60
2019-02-16T11:55:44.362Z,41.46
2019-02-16T11:58:34.774Z,41.42
2019-02-16T12:01:16.864Z,40.57
2019-02-16T12:04:19.488Z,40.90
2019-02-16T12:07:09.131Z,41.81
2019-02-16T12:10:14.130Z,41.78
2019-02-16T12:13:08.107Z,40.52
2019-02-16T12:16:00.043Z,41.91
2019-02-16T12:18:56.614Z,41.71
2019-02-16T12:21:44.110Z,41.04
2019-02-16T12:25:02.955Z,40.81
2019-02-16T12:27:40.704Z,41.07
2019-02-16T12:30:34.074Z,40.07
2019-02-16T12:33:31.287Z,40.29
2019-02-16T12:36:32.268Z,41.64
2019-02-16T12:39:35.267Z,41.06
2019-02-16T12:42:29.233Z,41.20
2019-02-16T12:45:21.385Z,40.44
2019-02-16T12:48:19.959Z,39.01
2019-02-16T12:51:07.558Z,39.79
2019-02-16T12:54:09.883Z,40.12
2019-02-16T12:57:03.219Z,39.02
2019-02-16T12:59:59.933Z,39.43
2019-02-16T13:02:50.446Z,38.62
2019-02-16T13:05:49.988Z,39.15
2019-02-16T13:08:39.507Z,39.13
2019-02-16T13:11:23.172Z,38.58
2019-02-16T13:14:11.566Z,38.96
2019-02-16T13:17:07.072Z,38.57
2019-02-16T13:19:46.923Z,38.71
2019-02-16T13:22:40.426Z,39.69
2019-02-16T13:25:36.779Z,39.40
2019-02-16T13:28:23.079Z,39.62
2019-02-16T13:31:19.632Z,39.60
2019-02-16T13:34:10.139Z,40.44
2019-02-16T13:36:53.243Z,40.24
2019-02-16T13:39:34.962Z,40.85
2019-02-16T13:42:28.451Z,41.07
2019-02-16T13:45:30.833Z,40.37
2019-02-16T13:48:24.123Z,41.04
2019-02-16T13:51:10.031Z,41.11
2019-02-16T13:54:06.708Z,41.32
2019-02-16T13:57:03.582Z,41.23
2019-02-16T13:59:52.714Z,41.29
2019-02-16T14:02:44.570Z,40.88
2019-02-16T14:05:27.118Z,40.93
2019-02-16T14:08:23.493Z,41.24
2019-02-16T14:10:59.751Z,41.14
2019-02-16T14:13:53.068Z,41.56
2019-02-16T14:16:32.812Z,42.05
2019-02-16T14:19:04.419Z,42.29
2019-02-16T14:21:36.113Z,41.69
2019-02-16T14:24:07.803Z,41.69
2019-02-16T14:26:39.402Z,41.99
2019-02-16T14:29:11.093Z,42.25
2019-02-16T14:31:42.703Z,42.71
2019-02-16T14:34:14.379Z,42.45
2019-02-16T14:36:47.431Z,42.51
2019-02-16T14:39:29.377Z,42.93
2019-02-16T14:42:01.056Z,42.89
2019-02-16T14:44:33.172Z,43.33
2019-02-16T14:47:04.956Z,42.95
2019-02-16T14:49:36.803Z,43.41
2019-02-16T14:52:10.247Z,43.20
2019-02-16T14:54:42.574Z,43.35
2019-02-16T14:57:14.550Z,43.43
2019-02-16T14:59:46.509Z,43.06
2019-02-16T15:02:18.400Z,42.71
2019-02-16T15:04:50.394Z,42.80
2019-02-16T15:07:22.475Z,42.15
2019-02-16T15:09:54.470Z,42.22
2019-02-16T15:12:26.558Z,42.21
2019-02-16T15:14:58.628Z,42.10
2019-02-16T15:17:31.680Z,42.21
2019-02-16T15:20:04.321Z,42.20
2019-02-16T15:22:36.529Z,42.24
2019-02-16T15:25:10.764Z,42.30
2019-02-16T15:27:43.044Z,42.38
2019-02-16T15:30:16.368Z,42.78
2019-02-16T15:32:48.061Z,42.94
2019-02-16T15:35:20.634Z,43.58
2019-02-16T15:37:53.484Z,43.57
2019-02-16T15:40:25.569Z,43.73
2019-02-16T15:42:57.775Z,44.07
2019-02-16T15:45:29.660Z,44.28
2019-02-16T15:48:01.331Z,44.65
2019-02-16T15:50:33.092Z,45.30
2019-02-16T15:53:04.811Z,46.24
2019-02-16T15:55:36.543Z,46.78
2019-02-16T15:58:08.236Z,46.84
2019-02-16T16:00:40.031Z,46.43
2019-02-16T16:03:11.649Z,46.68
2019-02-16T16:05:43.503Z,46.54
2019-02-16T16:08:33.129Z,47.51
2019-02-16T16:11:23.729Z,48.35
2019-02-16T16:14:23.762Z,48.72
2019-02-16T16:17:30.860Z,48.97
2019-02-16T16:20:09.443Z,50.51
2019-02-16T16:22:50.331Z,51.10
2019-02-16T16:25:33.932Z,50.04
2019-02-16T16:28:30.799Z,51.08
2019-02-16T16:31:20.194Z,51.53
2019-02-16T16:34:08.659Z,52.15
2019-02-16T16:37:14.140Z,52.33
2019-02-16T16:40:04.741Z,53.20
2019-02-16T16:42:55.320Z,53.91
2019-02-16T16:45:52.705Z,54.39
2019-02-16T16:48:30.305Z,54.63
2019-02-16T16:51:36.277Z,54.93
2019-02-16T16:54:25.370Z,55.77
2019-02-16T16:57:02.962Z,55.94
2019-02-16T16:59:55.557Z,56.26
2019-02-16T17:03:01.071Z,55.85
2019-02-16T17:05:57.416Z,56.36
2019-02-16T17:08:46.401Z,57.37
2019-02-16T17:11:35.746Z,58.23
2019-02-16T17:14:24.716Z,58.61
2019-02-16T17:17:09.243Z,58.65
2019-02-16T17:20:11.749Z,58.82
2019-02-16T17:23:02.329Z,59.42
2019-02-16T17:25:52.991Z,59.15
2019-02-16T17:28:49.609Z,58.89
2019-02-16T17:31:43.201Z,59.09
2019-02-16T17:34:33.849Z,59.92
2019-02-16T17:37:12.334Z,59.94
2019-02-16T17:39:55.220Z,60.59
2019-02-16T17:42:54.847Z,60.63
2019-02-16T17:45:54.305Z,61.16
2019-02-16T17:48:45.984Z,60.92
2019-02-16T17:51:26.697Z,60.93
2019-02-16T17:54:15.839Z,60.92
2019-02-16T17:57:15.126Z,61.18
2019-02-16T18:00:07.528Z,61.44
2019-02-16T18:03:04.573Z,61.23
2019-02-16T18:05:55.220Z,60.53
2019-02-16T18:08:42.691Z,61.06
2019-02-16T18:11:31.664Z,61.57
2019-02-16T18:14:20.545Z,61.59
2019-02-16T18:17:20.128Z,62.48
2019-02-16T18:20:10.730Z,62.07
2019-02-16T18:23:06.116Z,62.63
2019-02-16T18:25:54.713Z,62.34
2019-02-16T18:28:56.739Z,61.72
2019-02-16T18:31:49.446Z,61.92
2019-02-16T18:34:39.572Z,61.71
2019-02-16T18:37:38.958Z,62.28
2019-02-16T18:40:27.934Z,62.69
2019-02-16T18:43:23.715Z,63.27
2019-02-16T18:46:20.436Z,63.65
2019-02-16T18:49:09.385Z,63.92
2019-02-16T18:51:58.374Z,63.75
2019-02-16T18:54:36.304Z,62.85
2019-02-16T18:57:29.747Z,62.21
2019-02-16T19:00:23.126Z,62.16
2019-02-16T19:03:18.513Z,61.26
2019-02-16T19:06:09.118Z,61.30
2019-02-16T19:09:06.947Z,60.71
2019-02-16T19:11:58.032Z,60.29
2019-02-16T19:15:14.592Z,61.39
2019-02-16T19:17:53.231Z,62.14
2019-02-16T19:20:43.767Z,62.43
2019-02-16T19:23:27.682Z,61.16
2019-02-16T19:26:19.208Z,60.99
2019-02-16T19:29:08.152Z,62.03
2019-02-16T19:31:45.694Z,61.97
2019-02-16T19:34:42.111Z,61.56
2019-02-16T19:37:19.634Z,61.48
2019-02-16T19:40:13.788Z,61.72
2019-02-16T19:43:03.256Z,61.51
2019-02-16T19:45:43.218Z,61.55
2019-02-16T19:48:23.850Z,62.38
2019-02-16T19:51:20.385Z,62.82
2019-02-16T19:54:14.087Z,63.90
2019-02-16T19:57:26.931Z,62.80
2019-02-16T20:00:13.900Z,62.75
2019-02-16T20:03:07.379Z,62.56
2019-02-16T20:06:06.887Z,61.98
2019-02-16T20:09:00.230Z,61.87
2019-02-16T20:11:54.481Z,61.31
2019-02-16T20:14:45.206Z,61.11
2019-02-16T20:17:30.616Z,60.17
2019-02-16T20:20:20.016Z,60.64
2019-02-16T20:23:11.425Z,61.75
2019-02-16T20:26:11.074Z,61.04
2019-02-16T20:28:49.273Z,61.04
2019-02-16T20:31:30.885Z,61.64
2019-02-16T20:34:15.822Z,61.95
2019-02-16T20:36:55.738Z,62.16
2019-02-16T20:40:01.512Z,62.11
2019-02-16T20:43:02.486Z,61.18
2019-02-16T20:45:53.685Z,62.03
2019-02-16T20:48:43.285Z,62.70
2019-02-16T20:51:32.896Z,62.73
2019-02-16T20:54:32.809Z,62.71
2019-02-16T20:57:22.688Z,62.51
2019-02-16T21:00:16.432Z,63.08
2019-02-16T21:02:55.108Z,62.74
2019-02-16T21:05:45.661Z,63.04
2019-02-16T21:08:39.201Z,63.67
2019-02-16T21:11:34.963Z,62.92
2019-02-16T21:14:37.940Z,62.92
2019-02-16T21:17:40.749Z,63.27
2019-02-16T21:20:46.223Z,62.47
2019-02-16T21:23:33.247Z,62.53
2019-02-16T21:26:39.791Z,63.12
2019-02-16T21:29:23.035Z,61.44
2019-02-16T21:32:09.970Z,60.48
2019-02-16T21:35:00.651Z,60.97
2019-02-16T21:37:57.175Z,60.75
2019-02-16T21:40:47.789Z,61.02
2019-02-16T21:43:47.417Z,61.79
2019-02-16T21:46:47.120Z,61.57
2019-02-16T21:49:42.300Z,61.10
2019-02-16T21:52:43.659Z,61.75
2019-02-16T21:55:32.431Z,61.73
2019-02-16T21:58:21.450Z,61.77
2019-02-16T22:01:10.617Z,61.59
2019-02-16T22:04:16.384Z,62.06
2019-02-16T22:07:18.210Z,62.17
2019-02-16T22:10:23.962Z,62.48
2019-02-16T22:13:12.397Z,62.29
2019-02-16T22:15:44.101Z,61.96
2019-02-16T22:18:15.804Z,62.57
2019-02-16T22:20:48.028Z,62.13
2019-02-16T22:23:20.468Z,62.97
2019-02-16T22:25:52.928Z,62.75
2019-02-16T22:28:30.805Z,62.78
2019-02-16T22:30:58.320Z,63.38
2019-02-16T22:33:29.946Z,64.03
2019-02-16T22:36:01.556Z,63.68
2019-02-16T22:38:34.027Z,63.69
2019-02-16T22:41:05.948Z,63.65
2019-02-16T22:43:38.176Z,63.75
2019-02-16T22:46:10.038Z,64.25
2019-02-16T22:48:41.758Z,64.05
2019-02-16T22:51:13.660Z,63.84
2019-02-16T22:53:45.367Z,63.60
2019-02-16T22:56:17.360Z,63.63
2019-02-16T22:58:49.316Z,63.98
2019-02-16T23:01:21.015Z,64.32
2019-02-16T23:03:52.908Z,64.03
2019-02-16T23:06:25.000Z,63.85
2019-02-16T23:08:56.748Z,63.96
2019-02-16T23:11:28.460Z,64.14
2019-02-16T23:14:00.192Z,63.97
2019-02-16T23:16:32.321Z,64.43
2019-02-16T23:19:04.124Z,64.11
2019-02-16T23:21:36.141Z,64.19
2019-02-16T23:24:08.274Z,64.73
2019-02-16T23:26:40.197Z,64.74
2019-02-16T23:29:11.872Z,64.60
2019-02-16T23:31:43.580Z,64.44
2019-02-16T23:34:15.417Z,65.14
2019-02-16T23:36:47.849Z,65.06
2019-02-16T23:39:20.182Z,65.07
2019-02-16T23:41:51.914Z,65.10
2019-02-16T23:44:24.153Z,64.90
2019-02-16T23:46:55.777Z,64.93
2019-02-16T23:49:27.886Z,64.37
2019-02-16T23:52:00.137Z,64.19
2019-02-16T23:54:31.816Z,63.99
2019-02-16T23:57:03.801Z,64.42
2019-02-16T23:59:35.856Z,64.08
